Time;durP1;ratioP1;P1;durP2;ratioP2;P2;SDS_P1;SDS_P2;PMS_P1;PMS_P2;Temp;Humidity;BMP_temperature;BMP_pressure;BME280_temperature;BME280_humidity;BME280_pressure;Samples;Min_cycle;Max_cycle;Signal;HPM_P1;HPM_P2
2023/07/16 00:02:09;;;;;;;5.95;2.72;;;;;;;;;;5033229;28;20590;-67
2023/07/16 00:04:34;;;;;;;4.57;2.58;;;;;;;;;;5033455;28;20494;-70
2023/07/16 00:07:01;;;;;;;5.60;2.70;;;;;;;;;;5033014;28;20036;-67
2023/07/16 00:09:27;;;;;;;4.90;2.45;;;;;;;;;;5033171;28;20041;-67
2023/07/16 00:11:52;;;;;;;3.17;2.50;;;;;;;;;;5033125;28;20028;-67
2023/07/16 00:14:18;;;;;;;4.32;2.10;;;;;;;;;;5033307;28;20025;-67
2023/07/16 00:16:43;;;;;;;3.45;2.28;;;;;;;;;;5033100;28;20359;-67
2023/07/16 00:19:11;;;;;;;5.20;2.20;;;;;;;;;;5032810;28;20372;-67
2023/07/16 00:21:37;;;;;;;4.85;1.92;;;;;;;;;;5032584;28;20397;-67
2023/07/16 00:24:03;;;;;;;3.60;2.38;;;;;;;;;;5032684;28;20083;-67
2023/07/16 00:26:28;;;;;;;5.60;2.00;;;;;;;;;;5021311;28;20033;-66
2023/07/16 00:28:54;;;;;;;5.68;2.25;;;;;;;;;;5012877;28;20165;-67
2023/07/16 00:31:19;;;;;;;5.10;2.53;;;;;;;;;;5012961;28;20033;-67
2023/07/16 00:33:45;;;;;;;3.10;2.00;;;;;;;;;;5012814;28;20386;-67
2023/07/16 00:36:10;;;;;;;7.80;2.50;;;;;;;;;;5012625;28;20101;-71
2023/07/16 00:38:36;;;;;;;3.38;2.30;;;;;;;;;;5012775;28;20470;-71
2023/07/16 00:41:01;;;;;;;5.60;2.20;;;;;;;;;;5012679;28;20503;-72
2023/07/16 00:43:26;;;;;;;4.03;2.30;;;;;;;;;;5012781;28;20218;-72
2023/07/16 00:45:52;;;;;;;5.53;2.65;;;;;;;;;;5012559;28;20026;-71
2023/07/16 00:48:19;;;;;;;4.90;2.70;;;;;;;;;;5020870;28;20337;-70
2023/07/16 00:50:44;;;;;;;3.58;2.53;;;;;;;;;;5032105;28;20029;-68
2023/07/16 00:53:10;;;;;;;4.57;2.40;;;;;;;;;;5032289;28;20025;-67
2023/07/16 00:55:36;;;;;;;5.22;2.35;;;;;;;;;;5032230;28;20029;-71
2023/07/16 00:58:05;;;;;;;5.82;2.33;;;;;;;;;;5032153;28;20025;-68
2023/07/16 01:00:36;;;;;;;5.40;2.33;;;;;;;;;;5032114;28;20029;-67
2023/07/16 01:03:03;;;;;;;4.40;2.30;;;;;;;;;;5031995;28;20025;-67
2023/07/16 01:05:36;;;;;;;4.30;2.38;;;;;;;;;;5032115;28;20026;-68
2023/07/16 01:08:06;;;;;;;4.10;2.38;;;;;;;;;;5030662;28;20249;-68
2023/07/16 01:10:32;;;;;;;;;;;;;;;;;;5031738;28;20021;-69
2023/07/16 01:12:58;;;;;;;4.60;2.50;;;;;;;;;;5031477;28;20035;-67
2023/07/16 01:15:24;;;;;;;3.72;2.33;;;;;;;;;;5031733;28;20478;-66
2023/07/16 01:17:49;;;;;;;5.85;2.67;;;;;;;;;;5031562;28;20378;-67
2023/07/16 01:20:15;;;;;;;4.28;2.67;;;;;;;;;;5031487;28;20029;-71
2023/07/16 01:22:47;;;;;;;4.65;2.50;;;;;;;;;;5031631;28;20463;-68
2023/07/16 01:25:23;;;;;;;6.00;2.80;;;;;;;;;;5030516;28;20026;-67
2023/07/16 01:28:27;;;;;;;4.47;2.55;;;;;;;;;;5011734;28;20022;-68
2023/07/16 01:30:54;;;;;;;5.47;2.75;;;;;;;;;;5045436;28;20030;-67
2023/07/16 01:33:21;;;;;;;7.03;2.30;;;;;;;;;;5028769;28;20044;-67
2023/07/16 01:35:48;;;;;;;5.80;2.20;;;;;;;;;;5012200;28;20033;-68
2023/07/16 01:38:16;;;;;;;4.45;2.30;;;;;;;;;;5028788;28;20059;-68
2023/07/16 01:40:41;;;;;;;5.88;2.58;;;;;;;;;;5028616;28;20029;-67
2023/07/16 01:43:07;;;;;;;5.30;2.33;;;;;;;;;;5028736;28;20030;-67
2023/07/16 01:45:32;;;;;;;4.20;2.25;;;;;;;;;;5028634;28;20485;-67
2023/07/16 01:48:24;;;;;;;5.13;2.50;;;;;;;;;;5028027;28;20454;-67
2023/07/16 01:50:49;;;;;;;3.30;2.10;;;;;;;;;;5027781;28;20059;-71
2023/07/16 01:53:15;;;;;;;3.67;2.35;;;;;;;;;;5028576;28;20056;-72
2023/07/16 01:55:40;;;;;;;4.70;2.10;;;;;;;;;;5028497;28;20040;-68
2023/07/16 01:58:06;;;;;;;2.90;1.95;;;;;;;;;;5028360;28;20026;-71
2023/07/16 02:00:31;;;;;;;3.20;1.98;;;;;;;;;;5028354;28;20034;-71
2023/07/16 02:02:57;;;;;;;3.15;2.22;;;;;;;;;;5028102;28;20105;-71
2023/07/16 02:05:22;;;;;;;4.22;2.40;;;;;;;;;;5028351;28;20030;-69
2023/07/16 02:07:48;;;;;;;3.00;2.13;;;;;;;;;;5029735;28;20044;-67
2023/07/16 02:10:13;;;;;;;3.70;2.20;;;;;;;;;;5030670;28;20025;-68
2023/07/16 02:12:38;;;;;;;3.50;2.20;;;;;;;;;;5030889;28;20026;-67
2023/07/16 02:15:04;;;;;;;4.10;2.40;;;;;;;;;;5030770;28;20557;-69
2023/07/16 02:17:30;;;;;;;3.42;2.05;;;;;;;;;;5030504;28;20521;-69
2023/07/16 02:19:55;;;;;;;2.83;1.92;;;;;;;;;;5030763;28;20167;-67
2023/07/16 02:22:21;;;;;;;3.58;1.90;;;;;;;;;;5030399;28;20017;-70
2023/07/16 02:24:46;;;;;;;3.50;2.20;;;;;;;;;;5030543;28;20510;-67
2023/07/16 02:27:11;;;;;;;3.47;2.03;;;;;;;;;;5013376;28;20037;-68
2023/07/16 02:29:37;;;;;;;6.82;2.00;;;;;;;;;;5010824;28;20022;-66
2023/07/16 02:32:02;;;;;;;10.27;2.75;;;;;;;;;;5010576;28;20029;-67
2023/07/16 02:34:28;;;;;;;6.40;2.30;;;;;;;;;;5010817;28;20030;-67
2023/07/16 02:36:53;;;;;;;6.55;2.35;;;;;;;;;;5010925;28;20048;-68
2023/07/16 02:39:19;;;;;;;4.35;2.15;;;;;;;;;;5011075;28;20044;-67
2023/07/16 02:41:44;;;;;;;3.67;1.98;;;;;;;;;;5010850;28;20024;-67
2023/07/16 02:44:10;;;;;;;5.68;2.00;;;;;;;;;;5010895;28;20026;-68
2023/07/16 02:46:35;;;;;;;3.78;1.83;;;;;;;;;;5010796;28;20025;-66
2023/07/16 02:49:03;;;;;;;3.60;1.88;;;;;;;;;;5016870;28;20052;-66
2023/07/16 02:51:28;;;;;;;4.05;2.42;;;;;;;;;;5041224;28;20452;-67
2023/07/16 02:53:53;;;;;;;4.28;1.90;;;;;;;;;;5050363;28;20021;-67
2023/07/16 02:56:19;;;;;;;5.13;2.00;;;;;;;;;;5050354;28;20083;-67
2023/07/16 02:58:44;;;;;;;4.15;2.20;;;;;;;;;;5050219;28;20017;-68
2023/07/16 03:01:11;;;;;;;3.45;2.20;;;;;;;;;;5050144;28;20024;-67
2023/07/16 03:03:36;;;;;;;3.58;2.20;;;;;;;;;;5050243;28;20021;-68
2023/07/16 03:06:02;;;;;;;5.25;2.22;;;;;;;;;;5050175;28;20036;-68
2023/07/16 03:08:29;;;;;;;3.20;2.38;;;;;;;;;;5050128;28;20025;-67
2023/07/16 03:10:56;;;;;;;4.35;2.10;;;;;;;;;;5050033;28;20032;-67
2023/07/16 03:13:21;;;;;;;2.75;2.20;;;;;;;;;;5050105;28;20411;-67
2023/07/16 03:15:47;;;;;;;5.75;2.50;;;;;;;;;;5049965;28;20171;-68
2023/07/16 03:18:12;;;;;;;4.47;2.67;;;;;;;;;;5049953;28;20061;-67
2023/07/16 03:20:38;;;;;;;5.38;2.47;;;;;;;;;;5034960;28;20028;-66
2023/07/16 03:23:03;;;;;;;7.78;2.40;;;;;;;;;;5029904;28;20101;-67
2023/07/16 03:25:29;;;;;;;5.85;2.38;;;;;;;;;;5028302;28;20438;-68
2023/07/16 03:27:54;;;;;;;3.67;2.38;;;;;;;;;;5029743;28;20092;-67
2023/07/16 03:30:19;;;;;;;3.85;2.50;;;;;;;;;;5029965;28;20095;-67
2023/07/16 03:32:45;;;;;;;5.68;2.50;;;;;;;;;;5029981;28;20383;-67
2023/07/16 03:35:10;;;;;;;10.50;3.13;;;;;;;;;;5032245;28;20021;-68
2023/07/16 03:37:36;;;;;;;4.57;2.53;;;;;;;;;;5033647;28;20061;-68
2023/07/16 03:40:22;;;;;;;5.18;2.72;;;;;;;;;;5033688;28;20039;-67
2023/07/16 03:42:48;;;;;;;3.88;2.70;;;;;;;;;;5033354;28;20031;-68
2023/07/16 03:45:14;;;;;;;3.88;2.60;;;;;;;;;;5033664;28;20117;-68
2023/07/16 03:47:40;;;;;;;4.30;2.88;;;;;;;;;;5033339;28;20052;-68
2023/07/16 03:50:06;;;;;;;3.33;2.50;;;;;;;;;;5033226;28;20386;-68
2023/07/16 03:52:31;;;;;;;3.70;2.60;;;;;;;;;;5040387;28;20427;-68
2023/07/16 03:54:56;;;;;;;5.75;2.80;;;;;;;;;;5053227;28;20051;-67
2023/07/16 03:57:22;;;;;;;4.35;2.92;;;;;;;;;;5053141;28;20032;-68
2023/07/16 03:59:47;;;;;;;4.10;2.55;;;;;;;;;;5053170;28;20029;-67
2023/07/16 04:02:13;;;;;;;4.60;2.63;;;;;;;;;;5052935;28;20116;-68
2023/07/16 04:04:38;;;;;;;4.82;2.70;;;;;;;;;;5053233;28;20108;-69
2023/07/16 04:07:04;;;;;;;5.22;2.88;;;;;;;;;;5053041;28;20768;-68
2023/07/16 04:09:29;;;;;;;4.68;2.60;;;;;;;;;;5052883;28;20033;-67
2023/07/16 04:11:55;;;;;;;4.32;2.63;;;;;;;;;;5052792;28;20083;-68
2023/07/16 04:14:20;;;;;;;4.47;2.88;;;;;;;;;;5053172;28;20049;-68
2023/07/16 04:16:46;;;;;;;5.18;3.00;;;;;;;;;;5052908;28;20028;-68
2023/07/16 04:19:11;;;;;;;4.10;2.70;;;;;;;;;;5049810;28;20044;-68
2023/07/16 04:21:36;;;;;;;5.30;3.20;;;;;;;;;;5032906;28;20032;-67
2023/07/16 04:24:03;;;;;;;3.55;2.80;;;;;;;;;;5032802;28;20049;-67
2023/07/16 04:26:28;;;;;;;4.70;2.72;;;;;;;;;;5024058;28;20549;-68
2023/07/16 04:28:54;;;;;;;5.65;3.17;;;;;;;;;;5032689;28;20120;-69
2023/07/16 04:31:19;;;;;;;4.57;2.85;;;;;;;;;;5032863;28;20075;-68
2023/07/16 04:33:45;;;;;;;5.43;3.17;;;;;;;;;;5032776;28;20017;-67
2023/07/16 04:36:10;;;;;;;5.78;2.97;;;;;;;;;;5032678;28;20112;-68
2023/07/16 04:38:35;;;;;;;3.60;2.83;;;;;;;;;;5032667;28;20462;-71
2023/07/16 04:41:01;;;;;;;4.30;2.90;;;;;;;;;;5032380;28;20593;-67
2023/07/16 04:43:26;;;;;;;8.00;3.40;;;;;;;;;;5032559;28;20029;-68
2023/07/16 04:45:52;;;;;;;6.45;2.78;;;;;;;;;;5032284;28;20032;-68
2023/07/16 04:48:17;;;;;;;6.45;3.38;;;;;;;;;;5032040;28;20065;-68
2023/07/16 04:50:42;;;;;;;5.00;3.50;;;;;;;;;;5032258;28;20383;-68
2023/07/16 04:53:08;;;;;;;4.85;3.47;;;;;;;;;;5038597;28;20058;-68
2023/07/16 04:55:37;;;;;;;6.63;3.30;;;;;;;;;;5052129;28;20040;-68
2023/07/16 04:58:03;;;;;;;5.03;3.60;;;;;;;;;;5052094;28;20135;-69
2023/07/16 05:00:28;;;;;;;5.65;3.53;;;;;;;;;;5052176;28;20440;-70
2023/07/16 05:02:54;;;;;;;5.72;3.42;;;;;;;;;;5052135;28;20035;-68
2023/07/16 05:05:19;;;;;;;5.10;3.55;;;;;;;;;;5052104;28;20032;-68
2023/07/16 05:07:44;;;;;;;6.75;3.80;;;;;;;;;;5052004;28;20033;-67
2023/07/16 05:10:10;;;;;;;8.02;3.63;;;;;;;;;;5051700;28;20032;-68
2023/07/16 05:12:36;;;;;;;4.43;3.30;;;;;;;;;;5052026;28;20036;-67
2023/07/16 05:15:01;;;;;;;5.75;3.60;;;;;;;;;;5052224;28;20021;-68
2023/07/16 05:17:27;;;;;;;5.03;3.55;;;;;;;;;;5051851;28;20035;-67
2023/07/16 05:19:52;;;;;;;5.72;3.22;;;;;;;;;;5043064;28;20060;-67
2023/07/16 05:22:17;;;;;;;4.40;3.13;;;;;;;;;;5031754;28;20112;-68
2023/07/16 05:24:44;;;;;;;3.78;2.92;;;;;;;;;;5031539;28;20025;-68
2023/07/16 05:27:09;;;;;;;5.85;3.30;;;;;;;;;;5015615;28;20563;-67
2023/07/16 05:29:35;;;;;;;5.55;3.15;;;;;;;;;;5031651;28;20037;-67
2023/07/16 05:32:00;;;;;;;4.95;3.13;;;;;;;;;;5031669;28;20487;-67
2023/07/16 05:34:26;;;;;;;7.90;3.35;;;;;;;;;;5031751;28;20026;-67
2023/07/16 05:36:54;;;;;;;6.68;3.70;;;;;;;;;;5031476;28;20414;-67
2023/07/16 05:39:21;;;;;;;5.13;3.13;;;;;;;;;;5031220;28;20024;-68
2023/07/16 05:41:46;;;;;;;4.38;3.40;;;;;;;;;;5031639;28;20021;-68
2023/07/16 05:44:12;;;;;;;4.43;3.33;;;;;;;;;;5031411;28;20026;-67
2023/07/16 05:46:37;;;;;;;4.47;3.28;;;;;;;;;;5031492;28;20052;-69
2023/07/16 05:49:03;;;;;;;8.13;3.53;;;;;;;;;;5030964;28;20053;-69
2023/07/16 05:51:28;;;;;;;5.38;3.65;;;;;;;;;;5031243;28;20110;-69
2023/07/16 05:53:53;;;;;;;5.80;3.20;;;;;;;;;;5030697;28;20113;-67
2023/07/16 05:56:19;;;;;;;5.88;3.42;;;;;;;;;;5031144;28;20086;-68
2023/07/16 05:58:44;;;;;;;4.68;3.25;;;;;;;;;;5030521;28;20134;-68
2023/07/16 06:01:10;;;;;;;6.45;3.03;;;;;;;;;;5031241;28;20383;-68
2023/07/16 06:03:35;;;;;;;6.75;3.42;;;;;;;;;;5031235;28;20114;-68
2023/07/16 06:06:00;;;;;;;4.55;3.40;;;;;;;;;;5031004;28;20068;-68
2023/07/16 06:08:26;;;;;;;5.53;3.60;;;;;;;;;;5030604;28;20433;-67
2023/07/16 06:10:51;;;;;;;12.00;4.10;;;;;;;;;;5030865;28;20029;-67
2023/07/16 06:13:17;;;;;;;4.53;3.40;;;;;;;;;;5030852;28;20459;-69
2023/07/16 06:15:43;;;;;;;5.50;3.47;;;;;;;;;;5030850;28;20471;-72
2023/07/16 06:18:09;;;;;;;5.35;3.10;;;;;;;;;;5030568;28;20087;-69
2023/07/16 06:20:34;;;;;;;7.05;3.38;;;;;;;;;;5030721;28;20070;-69
2023/07/16 06:23:00;;;;;;;6.65;3.65;;;;;;;;;;5030631;28;20017;-68
2023/07/16 06:25:25;;;;;;;8.13;3.40;;;;;;;;;;5038382;28;20025;-67
2023/07/16 06:27:50;;;;;;;6.47;3.13;;;;;;;;;;5030540;28;20109;-67
2023/07/16 06:30:16;;;;;;;6.15;3.15;;;;;;;;;;5030698;28;20025;-70
2023/07/16 06:32:41;;;;;;;5.00;3.03;;;;;;;;;;5030685;28;20028;-66
2023/07/16 06:35:08;;;;;;;6.28;3.35;;;;;;;;;;5030640;28;20049;-67
2023/07/16 06:37:33;;;;;;;8.10;3.28;;;;;;;;;;5030341;28;20033;-67
2023/07/16 06:39:59;;;;;;;3.90;2.92;;;;;;;;;;5030481;28;20032;-67
2023/07/16 06:42:24;;;;;;;5.75;3.10;;;;;;;;;;5030481;28;20390;-67
2023/07/16 06:44:49;;;;;;;5.07;2.97;;;;;;;;;;5044606;28;20063;-66
2023/07/16 06:47:15;;;;;;;6.03;3.45;;;;;;;;;;5041082;28;20088;-68
2023/07/16 06:49:40;;;;;;;4.93;3.53;;;;;;;;;;5038872;28;20450;-67
2023/07/16 06:52:06;;;;;;;3.95;2.80;;;;;;;;;;5040476;28;20048;-67
2023/07/16 06:54:32;;;;;;;3.90;2.78;;;;;;;;;;5040529;28;20513;-67
2023/07/16 06:56:57;;;;;;;6.28;3.35;;;;;;;;;;5040168;28;20083;-67
2023/07/16 06:59:22;;;;;;;5.30;3.33;;;;;;;;;;5037987;28;20028;-67
2023/07/16 07:01:48;;;;;;;4.28;3.10;;;;;;;;;;5040062;28;20032;-67
2023/07/16 07:04:13;;;;;;;4.70;3.22;;;;;;;;;;5039075;28;20040;-68
2023/07/16 07:06:40;;;;;;;4.47;3.08;;;;;;;;;;5041281;28;20017;-67
2023/07/16 07:09:05;;;;;;;5.82;3.10;;;;;;;;;;5038914;28;20053;-67
2023/07/16 07:11:31;;;;;;;4.88;2.65;;;;;;;;;;5044437;28;20018;-71
2023/07/16 07:13:57;;;;;;;5.38;3.22;;;;;;;;;;5043480;28;20021;-67
2023/07/16 07:16:23;;;;;;;5.78;3.63;;;;;;;;;;5042931;28;20071;-68
2023/07/16 07:18:49;;;;;;;5.35;3.10;;;;;;;;;;5044545;28;20025;-67
2023/07/16 07:21:14;;;;;;;5.32;3.30;;;;;;;;;;5040761;28;20613;-67
2023/07/16 07:23:40;;;;;;;4.88;3.20;;;;;;;;;;5045183;28;20540;-67
2023/07/16 07:26:06;;;;;;;7.03;3.05;;;;;;;;;;5030945;28;20018;-67
2023/07/16 07:28:31;;;;;;;5.05;3.30;;;;;;;;;;5014077;28;20041;-67
2023/07/16 07:30:56;;;;;;;3.80;2.75;;;;;;;;;;5030605;28;20025;-67
2023/07/16 07:33:22;;;;;;;4.00;3.08;;;;;;;;;;5033935;28;20017;-68
2023/07/16 07:35:47;;;;;;;4.13;3.03;;;;;;;;;;5033557;28;20053;-67
2023/07/16 07:38:13;;;;;;;4.07;3.05;;;;;;;;;;5033699;28;20036;-68
2023/07/16 07:40:38;;;;;;;4.03;3.03;;;;;;;;;;5033768;28;20040;-68
2023/07/16 07:43:04;;;;;;;4.78;2.92;;;;;;;;;;5033729;28;20033;-67
2023/07/16 07:45:29;;;;;;;4.22;2.83;;;;;;;;;;5033613;28;20021;-69
2023/07/16 07:47:54;;;;;;;4.18;2.70;;;;;;;;;;5033265;28;20038;-67
2023/07/16 07:50:20;;;;;;;4.95;2.90;;;;;;;;;;5033317;28;20017;-68
2023/07/16 07:52:45;;;;;;;3.80;3.00;;;;;;;;;;5033812;28;20033;-67
2023/07/16 07:55:11;;;;;;;6.40;3.47;;;;;;;;;;5033470;28;20087;-71
2023/07/16 07:57:36;;;;;;;3.70;2.65;;;;;;;;;;5051086;28;20037;-68
2023/07/16 08:00:02;;;;;;;3.90;2.80;;;;;;;;;;5053072;28;20054;-66
2023/07/16 08:02:27;;;;;;;3.10;1.90;;;;;;;;;;5053441;28;20155;-67
2023/07/16 08:04:54;;;;;;;3.17;1.73;;;;;;;;;;5053038;28;20092;-72
2023/07/16 08:07:20;;;;;;;3.33;1.85;;;;;;;;;;5043091;28;20030;-67
2023/07/16 08:09:46;;;;;;;4.03;1.77;;;;;;;;;;5033771;28;20080;-67
2023/07/16 08:12:12;;;;;;;2.60;1.67;;;;;;;;;;5035421;28;20026;-70
2023/07/16 08:14:37;;;;;;;3.45;1.70;;;;;;;;;;5035108;28;20023;-67
2023/07/16 08:17:03;;;;;;;2.70;1.45;;;;;;;;;;5036386;28;20475;-67
2023/07/16 08:19:28;;;;;;;3.55;1.58;;;;;;;;;;5051841;28;20025;-67
2023/07/16 08:21:54;;;;;;;3.47;1.67;;;;;;;;;;5043785;28;20041;-67
2023/07/16 08:24:19;;;;;;;3.08;1.65;;;;;;;;;;5044440;28;20078;-67
2023/07/16 08:26:45;;;;;;;3.78;1.92;;;;;;;;;;5037351;28;20045;-67
2023/07/16 08:29:10;;;;;;;4.03;1.70;;;;;;;;;;5049006;28;20112;-67
2023/07/16 08:31:35;;;;;;;3.40;1.67;;;;;;;;;;5038315;28;20362;-69
2023/07/16 08:34:01;;;;;;;2.85;1.50;;;;;;;;;;5043120;28;20049;-67
2023/07/16 08:36:26;;;;;;;4.28;1.70;;;;;;;;;;5033568;28;20045;-73
2023/07/16 08:38:52;;;;;;;3.55;1.40;;;;;;;;;;5033042;28;20480;-66
2023/07/16 08:41:17;;;;;;;5.47;1.70;;;;;;;;;;5032851;28;20447;-72
2023/07/16 08:43:46;;;;;;;4.10;1.80;;;;;;;;;;5033856;28;20026;-67
2023/07/16 08:46:12;;;;;;;3.42;1.55;;;;;;;;;;5032949;28;20025;-67
2023/07/16 08:48:38;;;;;;;5.47;1.50;;;;;;;;;;5032330;28;20107;-67
2023/07/16 08:51:04;;;;;;;3.35;1.50;;;;;;;;;;5032778;28;20024;-67
2023/07/16 08:53:30;;;;;;;3.78;1.60;;;;;;;;;;5032704;28;20021;-67
2023/07/16 08:55:55;;;;;;;3.17;1.42;;;;;;;;;;5036697;28;20018;-66
2023/07/16 08:58:23;;;;;;;3.45;1.38;;;;;;;;;;5043132;28;20063;-66
2023/07/16 09:00:49;;;;;;;4.32;1.50;;;;;;;;;;5033242;28;20052;-71
2023/07/16 09:03:17;;;;;;;4.57;1.58;;;;;;;;;;5047017;28;20518;-67
2023/07/16 09:05:46;;;;;;;4.22;1.63;;;;;;;;;;5035284;28;20125;-71
2023/07/16 09:08:13;;;;;;;7.43;1.53;;;;;;;;;;5044650;28;20124;-71
2023/07/16 09:10:40;;;;;;;4.20;1.42;;;;;;;;;;5042248;28;20029;-67
2023/07/16 09:13:05;;;;;;;4.00;1.58;;;;;;;;;;5037492;28;20029;-69
2023/07/16 09:15:31;;;;;;;2.50;1.55;;;;;;;;;;5047997;28;20070;-67
2023/07/16 09:17:57;;;;;;;3.67;1.80;;;;;;;;;;5036056;28;20477;-67
2023/07/16 09:20:25;;;;;;;5.93;1.60;;;;;;;;;;5041254;28;20442;-70
2023/07/16 09:22:57;;;;;;;2.70;1.43;;;;;;;;;;5035906;28;20025;-66
2023/07/16 09:25:32;;;;;;;4.18;1.40;;;;;;;;;;5032479;28;20719;-70
2023/07/16 09:28:00;;;;;;;4.20;1.50;;;;;;;;;;5037118;28;20029;-71
2023/07/16 09:30:32;;;;;;;2.92;1.50;;;;;;;;;;5046481;28;20029;-71
2023/07/16 09:32:57;;;;;;;8.98;1.60;;;;;;;;;;5039482;28;20051;-71
2023/07/16 09:35:23;;;;;;;5.43;1.45;;;;;;;;;;5038835;28;20112;-67
2023/07/16 09:37:48;;;;;;;3.08;1.35;;;;;;;;;;5033894;28;20021;-68
2023/07/16 09:40:14;;;;;;;3.70;1.40;;;;;;;;;;5034900;28;20543;-67
2023/07/16 09:42:41;;;;;;;4.57;2.67;;;;;;;;;;5033643;28;20025;-72
2023/07/16 09:45:08;;;;;;;2.97;1.40;;;;;;;;;;5037103;28;20124;-67
2023/07/16 09:47:37;;;;;;;3.38;1.40;;;;;;;;;;5046421;28;20045;-67
2023/07/16 09:50:04;;;;;;;4.25;1.75;;;;;;;;;;5034693;28;20021;-71
2023/07/16 09:52:32;;;;;;;11.23;1.90;;;;;;;;;;5037712;28;20028;-72
2023/07/16 09:55:01;;;;;;;2.95;1.90;;;;;;;;;;5038108;28;20471;-71
2023/07/16 09:57:28;;;;;;;2.72;1.48;;;;;;;;;;5036925;28;20155;-72
2023/07/16 09:59:58;;;;;;;3.00;1.50;;;;;;;;;;5052282;28;20029;-73
2023/07/16 10:02:23;;;;;;;3.53;1.80;;;;;;;;;;5036918;28;20036;-73
2023/07/16 10:04:49;;;;;;;5.90;1.70;;;;;;;;;;5044960;28;20021;-67
2023/07/16 10:07:23;;;;;;;2.20;1.38;;;;;;;;;;5043992;28;20466;-67
2023/07/16 10:09:56;;;;;;;3.38;1.50;;;;;;;;;;5033390;28;20033;-72
2023/07/16 10:12:26;;;;;;;3.70;1.50;;;;;;;;;;5031988;28;20459;-67
2023/07/16 10:14:56;;;;;;;3.45;1.70;;;;;;;;;;5041211;28;20051;-67
2023/07/16 10:17:23;;;;;;;2.80;1.40;;;;;;;;;;5052415;28;20470;-67
2023/07/16 10:20:01;;;;;;;4.88;1.50;;;;;;;;;;5044380;28;20036;-66
2023/07/16 10:22:41;;;;;;;3.97;1.65;;;;;;;;;;5032491;28;20104;-67
2023/07/16 10:25:19;;;;;;;3.17;1.48;;;;;;;;;;5032164;28;20382;-66
2023/07/16 10:27:46;;;;;;;3.30;1.45;;;;;;;;;;5014399;28;20065;-66
2023/07/16 10:30:12;;;;;;;3.33;1.40;;;;;;;;;;5032188;28;20026;-72
2023/07/16 10:32:38;;;;;;;6.25;1.90;;;;;;;;;;5032276;28;20379;-67
2023/07/16 10:35:05;;;;;;;5.55;1.63;;;;;;;;;;5032296;28;20040;-66
2023/07/16 10:37:31;;;;;;;3.75;1.58;;;;;;;;;;5032255;28;20033;-69
2023/07/16 10:40:00;;;;;;;5.78;1.42;;;;;;;;;;5032196;28;20064;-67
2023/07/16 10:42:27;;;;;;;2.92;1.60;;;;;;;;;;5032333;28;20068;-73
2023/07/16 10:44:55;;;;;;;3.38;1.63;;;;;;;;;;5030485;28;20095;-67
2023/07/16 10:47:21;;;;;;;2.97;1.75;;;;;;;;;;5031910;28;20053;-71
2023/07/16 10:49:46;;;;;;;3.00;1.60;;;;;;;;;;5032207;28;20367;-72
2023/07/16 10:52:12;;;;;;;3.70;1.48;;;;;;;;;;5030541;28;20044;-71
2023/07/16 10:54:37;;;;;;;4.20;1.70;;;;;;;;;;5032190;28;20112;-72
2023/07/16 10:57:04;;;;;;;2.90;1.45;;;;;;;;;;5032119;28;20048;-66
2023/07/16 10:59:30;;;;;;;2.58;1.38;;;;;;;;;;5050178;28;20025;-68
2023/07/16 11:01:55;;;;;;;4.43;1.42;;;;;;;;;;5051986;28;20056;-68
2023/07/16 11:04:20;;;;;;;3.97;1.55;;;;;;;;;;5051920;28;20020;-69
2023/07/16 11:06:46;;;;;;;2.90;1.50;;;;;;;;;;5052050;28;20021;-70
2023/07/16 11:09:11;;;;;;;3.65;1.70;;;;;;;;;;5051854;28;20304;-69
2023/07/16 11:11:37;;;;;;;3.95;1.70;;;;;;;;;;5051861;28;20125;-70
2023/07/16 11:14:07;;;;;;;5.93;1.67;;;;;;;;;;5045597;28;20028;-67
2023/07/16 11:16:36;;;;;;;6.63;1.60;;;;;;;;;;5031881;28;20032;-68
2023/07/16 11:19:05;;;;;;;;;;;;;;;;;;5032404;28;20023;-67
2023/07/16 11:21:33;;;;;;;4.93;1.83;;;;;;;;;;5031954;28;20009;-70
2023/07/16 11:24:12;;;;;;;3.85;1.60;;;;;;;;;;5031814;28;20072;-66
2023/07/16 11:26:37;;;;;;;4.13;1.80;;;;;;;;;;5019136;28;20438;-72
2023/07/16 11:29:13;;;;;;;4.78;1.70;;;;;;;;;;5024510;28;20075;-66
2023/07/16 11:31:42;;;;;;;5.57;1.90;;;;;;;;;;5031841;28;20029;-66
2023/07/16 11:34:12;;;;;;;2.97;1.80;;;;;;;;;;5037246;28;20342;-67
2023/07/16 11:36:37;;;;;;;2.85;1.70;;;;;;;;;;5030451;28;20397;-67
2023/07/16 11:39:04;;;;;;;2.70;1.70;;;;;;;;;;5029347;28;20029;-66
2023/07/16 11:41:30;;;;;;;3.50;2.00;;;;;;;;;;5032932;28;20494;-66
2023/07/16 11:43:59;;;;;;;3.92;1.90;;;;;;;;;;5040126;28;20441;-66
2023/07/16 11:46:25;;;;;;;4.95;1.90;;;;;;;;;;5041321;28;20029;-67
2023/07/16 11:48:50;;;;;;;4.50;1.90;;;;;;;;;;5041766;28;20041;-66
2023/07/16 11:51:16;;;;;;;3.22;1.70;;;;;;;;;;5042230;28;20017;-67
2023/07/16 11:53:41;;;;;;;3.97;1.73;;;;;;;;;;5040412;28;20026;-66
2023/07/16 11:56:07;;;;;;;4.45;2.08;;;;;;;;;;5042495;28;20056;-67
2023/07/16 11:58:32;;;;;;;4.38;2.00;;;;;;;;;;5045731;28;20030;-71
2023/07/16 12:00:57;;;;;;;3.60;1.67;;;;;;;;;;5043673;28;20028;-67
2023/07/16 12:03:23;;;;;;;2.88;1.63;;;;;;;;;;5045036;28;20025;-66
2023/07/16 12:05:48;;;;;;;3.35;1.83;;;;;;;;;;5044838;28;20029;-69
2023/07/16 12:08:14;;;;;;;5.72;1.80;;;;;;;;;;5043267;28;20041;-72
2023/07/16 12:10:43;;;;;;;3.05;1.80;;;;;;;;;;5038513;28;20613;-67
2023/07/16 12:13:08;;;;;;;3.15;1.80;;;;;;;;;;5035028;28;20029;-67
2023/07/16 12:15:34;;;;;;;6.03;1.90;;;;;;;;;;5035047;28;20029;-67
2023/07/16 12:17:59;;;;;;;3.63;1.92;;;;;;;;;;5034837;28;20096;-68
2023/07/16 12:20:25;;;;;;;3.25;1.75;;;;;;;;;;5034532;28;20041;-68
2023/07/16 12:22:50;;;;;;;2.63;1.60;;;;;;;;;;5033569;28;20463;-69
2023/07/16 12:25:18;;;;;;;4.38;1.77;;;;;;;;;;5032015;28;20021;-68
2023/07/16 12:27:44;;;;;;;3.70;1.70;;;;;;;;;;5016017;28;20026;-66
2023/07/16 12:30:10;;;;;;;3.42;1.80;;;;;;;;;;5034472;28;20017;-66
2023/07/16 12:32:35;;;;;;;2.95;1.65;;;;;;;;;;5034448;28;20029;-66
2023/07/16 12:35:01;;;;;;;5.75;1.95;;;;;;;;;;5034638;28;20024;-66
2023/07/16 12:37:26;;;;;;;4.38;1.80;;;;;;;;;;5033700;28;20034;-66
2023/07/16 12:39:52;;;;;;;3.20;1.70;;;;;;;;;;5032581;28;20032;-68
2023/07/16 12:42:17;;;;;;;3.42;1.90;;;;;;;;;;5033218;28;20021;-66
2023/07/16 12:44:43;;;;;;;2.78;1.60;;;;;;;;;;5033834;28;20064;-66
2023/07/16 12:47:09;;;;;;;5.28;1.73;;;;;;;;;;5033743;28;20022;-66
2023/07/16 12:49:35;;;;;;;3.45;1.50;;;;;;;;;;5033849;28;20088;-66
2023/07/16 12:52:00;;;;;;;4.90;1.98;;;;;;;;;;5033943;28;20026;-65
2023/07/16 12:54:25;;;;;;;3.72;1.88;;;;;;;;;;5034051;28;20036;-65
2023/07/16 12:56:51;;;;;;;2.70;1.70;;;;;;;;;;5034048;28;20018;-65
2023/07/16 12:59:16;;;;;;;2.78;1.60;;;;;;;;;;5036303;28;20116;-64
2023/07/16 13:01:42;;;;;;;3.20;1.83;;;;;;;;;;5054069;28;20419;-66
2023/07/16 13:04:07;;;;;;;2.85;1.70;;;;;;;;;;5053795;28;20033;-65
2023/07/16 13:06:32;;;;;;;3.15;1.40;;;;;;;;;;5053902;28;20376;-65
2023/07/16 13:08:59;;;;;;;4.43;1.73;;;;;;;;;;5053404;28;20029;-65
2023/07/16 13:11:24;;;;;;;5.80;1.88;;;;;;;;;;5053860;28;20029;-65
2023/07/16 13:13:50;;;;;;;6.38;1.85;;;;;;;;;;5053703;28;20090;-67
2023/07/16 13:16:15;;;;;;;3.15;1.50;;;;;;;;;;5053625;28;20025;-70
2023/07/16 13:18:41;;;;;;;2.83;1.50;;;;;;;;;;5053579;28;20029;-65
2023/07/16 13:21:06;;;;;;;7.30;1.90;;;;;;;;;;5034544;28;20497;-70
2023/07/16 13:23:32;;;;;;;3.88;1.98;;;;;;;;;;5033272;28;20110;-70
2023/07/16 13:25:57;;;;;;;3.55;1.77;;;;;;;;;;5026298;28;20034;-66
2023/07/16 13:28:24;;;;;;;5.95;1.83;;;;;;;;;;5017579;28;20450;-65
2023/07/16 13:30:49;;;;;;;3.40;1.88;;;;;;;;;;5033346;28;20447;-66
2023/07/16 13:33:15;;;;;;;6.00;1.55;;;;;;;;;;5033323;28;20024;-67
2023/07/16 13:35:41;;;;;;;3.05;1.65;;;;;;;;;;5033444;28;20026;-65
2023/07/16 13:38:07;;;;;;;2.78;1.70;;;;;;;;;;5032959;28;20486;-70
2023/07/16 13:40:32;;;;;;;3.28;1.67;;;;;;;;;;5033346;28;20033;-66
2023/07/16 13:42:58;;;;;;;3.35;1.60;;;;;;;;;;5033145;28;20509;-68
2023/07/16 13:45:24;;;;;;;6.78;1.70;;;;;;;;;;5033402;28;20025;-66
2023/07/16 13:47:52;;;;;;;3.00;1.80;;;;;;;;;;5032809;28;20449;-71
2023/07/16 13:50:18;;;;;;;4.70;2.00;;;;;;;;;;5032897;28;20096;-72
2023/07/16 13:52:44;;;;;;;4.68;1.90;;;;;;;;;;5032714;28;20030;-70
2023/07/16 13:55:09;;;;;;;4.47;1.60;;;;;;;;;;5032805;28;20067;-65
2023/07/16 13:57:35;;;;;;;4.18;1.80;;;;;;;;;;5032832;28;20442;-67
2023/07/16 14:00:01;;;;;;;4.50;1.90;;;;;;;;;;5032769;28;20075;-66
2023/07/16 14:02:26;;;;;;;5.70;1.90;;;;;;;;;;5049623;28;20449;-65
2023/07/16 14:04:51;;;;;;;2.85;1.70;;;;;;;;;;5052800;28;20017;-65
2023/07/16 14:07:17;;;;;;;4.00;1.75;;;;;;;;;;5052357;28;20098;-66
2023/07/16 14:09:42;;;;;;;5.05;1.92;;;;;;;;;;5044186;28;20479;-72
2023/07/16 14:12:08;;;;;;;4.90;2.08;;;;;;;;;;5029013;28;20029;-68
2023/07/16 14:14:33;;;;;;;9.25;2.13;;;;;;;;;;5031414;28;20538;-65
2023/07/16 14:16:59;;;;;;;3.58;2.05;;;;;;;;;;5034165;28;20101;-65
2023/07/16 14:19:24;;;;;;;4.15;1.90;;;;;;;;;;5041906;28;20013;-66
2023/07/16 14:21:50;;;;;;;5.68;2.10;;;;;;;;;;5041797;28;20018;-66
2023/07/16 14:24:15;;;;;;;5.60;1.70;;;;;;;;;;5052403;28;20390;-69
2023/07/16 14:26:41;;;;;;;4.10;1.75;;;;;;;;;;5039296;28;20022;-64
2023/07/16 14:29:06;;;;;;;6.40;2.00;;;;;;;;;;5032140;28;20044;-65
2023/07/16 14:31:31;;;;;;;5.68;1.80;;;;;;;;;;5032504;28;20021;-72
2023/07/16 14:33:57;;;;;;;5.35;2.20;;;;;;;;;;5032144;28;20022;-72
2023/07/16 14:36:23;;;;;;;4.50;1.80;;;;;;;;;;5031919;28;20104;-67
2023/07/16 14:38:48;;;;;;;5.35;2.00;;;;;;;;;;5032398;28;20462;-63